sensor_id;sensor_type;location;lat;lon;timestamp;pressure;altitude;pressure_sealevel;temperature;humidity
11830;BME280;5972;42.134;24.718;2023-07-24T00:00:17;99686.84;;;25.87;67.50
11830;BME280;5972;42.134;24.718;2023-07-24T00:02:44;99688.72;;;25.78;69.71
11830;BME280;5972;42.134;24.718;2023-07-24T00:05:11;99681.88;;;25.95;68.59
11830;BME280;5972;42.134;24.718;2023-07-24T00:07:39;99693.72;;;25.95;69.59
11830;BME280;5972;42.134;24.718;2023-07-24T00:10:06;99693.94;;;25.88;72.16
11830;BME280;5972;42.134;24.718;2023-07-24T00:12:33;99689.84;;;25.67;74.04
11830;BME280;5972;42.134;24.718;2023-07-24T00:15:00;99694.38;;;25.61;76.05
11830;BME280;5972;42.134;24.718;2023-07-24T00:17:27;99689.19;;;25.47;77.19
11830;BME280;5972;42.134;24.718;2023-07-24T00:19:54;99690.22;;;25.41;77.79
11830;BME280;5972;42.134;24.718;2023-07-24T00:22:20;99695.53;;;25.35;78.07
11830;BME280;5972;42.134;24.718;2023-07-24T00:24:48;99698.59;;;25.37;79.25
11830;BME280;5972;42.134;24.718;2023-07-24T00:27:15;99691.78;;;25.13;83.85
11830;BME280;5972;42.134;24.718;2023-07-24T00:29:42;99691.22;;;25.05;88.95
11830;BME280;5972;42.134;24.718;2023-07-24T00:32:09;99696.25;;;24.94;94.42
11830;BME280;5972;42.134;24.718;2023-07-24T00:34:35;99709.75;;;24.92;100.00
11830;BME280;5972;42.134;24.718;2023-07-24T00:37:03;99698.78;;;24.72;100.00
11830;BME280;5972;42.134;24.718;2023-07-24T00:39:30;99686.97;;;24.39;100.00
11830;BME280;5972;42.134;24.718;2023-07-24T00:41:58;99690.84;;;24.42;100.00
11830;BME280;5972;42.134;24.718;2023-07-24T00:44:25;99663.00;;;24.17;100.00
11830;BME280;5972;42.134;24.718;2023-07-24T00:46:52;99694.78;;;23.92;100.00
11830;BME280;5972;42.134;24.718;2023-07-24T00:49:20;99696.41;;;23.74;100.00
11830;BME280;5972;42.134;24.718;2023-07-24T00:51:47;99692.66;;;23.44;100.00
11830;BME280;5972;42.134;24.718;2023-07-24T00:54:16;99697.78;;;23.46;100.00
11830;BME280;5972;42.134;24.718;2023-07-24T00:56:44;99706.13;;;23.23;100.00
11830;BME280;5972;42.134;24.718;2023-07-24T00:59:12;99694.91;;;23.30;100.00
11830;BME280;5972;42.134;24.718;2023-07-24T01:01:39;99684.59;;;23.14;100.00
11830;BME280;5972;42.134;24.718;2023-07-24T01:04:08;99696.75;;;23.36;100.00
11830;BME280;5972;42.134;24.718;2023-07-24T01:06:35;99701.94;;;23.34;100.00
11830;BME280;5972;42.134;24.718;2023-07-24T01:09:01;99703.75;;;23.41;100.00
11830;BME280;5972;42.134;24.718;2023-07-24T01:11:32;99692.94;;;23.30;100.00
11830;BME280;5972;42.134;24.718;2023-07-24T01:14:06;99700.09;;;23.28;100.00
11830;BME280;5972;42.134;24.718;2023-07-24T01:16:40;99698.25;;;23.21;100.00
11830;BME280;5972;42.134;24.718;2023-07-24T01:19:12;99710.22;;;23.34;100.00
11830;BME280;5972;42.134;24.718;2023-07-24T01:21:52;99710.78;;;23.45;100.00
11830;BME280;5972;42.134;24.718;2023-07-24T01:24:30;99702.00;;;23.11;100.00
11830;BME280;5972;42.134;24.718;2023-07-24T01:27:01;99721.31;;;23.11;100.00
11830;BME280;5972;42.134;24.718;2023-07-24T01:29:28;99724.38;;;23.16;100.00
11830;BME280;5972;42.134;24.718;2023-07-24T01:31:55;99725.72;;;23.28;100.00
11830;BME280;5972;42.134;24.718;2023-07-24T01:34:22;99735.75;;;23.18;100.00
11830;BME280;5972;42.134;24.718;2023-07-24T01:36:49;99728.63;;;23.01;100.00
11830;BME280;5972;42.134;24.718;2023-07-24T01:39:18;99728.66;;;22.98;100.00
11830;BME280;5972;42.134;24.718;2023-07-24T01:41:45;99734.66;;;22.93;100.00
11830;BME280;5972;42.134;24.718;2023-07-24T01:44:13;99739.47;;;22.89;100.00
11830;BME280;5972;42.134;24.718;2023-07-24T01:46:39;99738.00;;;22.84;100.00
11830;BME280;5972;42.134;24.718;2023-07-24T01:49:06;99738.69;;;22.88;100.00
11830;BME280;5972;42.134;24.718;2023-07-24T01:51:33;99742.53;;;22.94;100.00
11830;BME280;5972;42.134;24.718;2023-07-24T01:54:00;99744.03;;;22.99;100.00
11830;BME280;5972;42.134;24.718;2023-07-24T01:56:26;99751.94;;;22.97;100.00
11830;BME280;5972;42.134;24.718;2023-07-24T01:58:53;99751.09;;;23.00;100.00
11830;BME280;5972;42.134;24.718;2023-07-24T02:01:21;99740.97;;;23.13;100.00
11830;BME280;5972;42.134;24.718;2023-07-24T02:03:48;99739.41;;;22.92;100.00
11830;BME280;5972;42.134;24.718;2023-07-24T02:06:15;99745.00;;;22.89;100.00
11830;BME280;5972;42.134;24.718;2023-07-24T02:08:42;99744.41;;;22.77;100.00
11830;BME280;5972;42.134;24.718;2023-07-24T02:11:14;99741.69;;;22.74;100.00
11830;BME280;5972;42.134;24.718;2023-07-24T02:13:40;99752.56;;;22.85;100.00
11830;BME280;5972;42.134;24.718;2023-07-24T02:16:07;99748.91;;;22.64;100.00
11830;BME280;5972;42.134;24.718;2023-07-24T02:18:36;99742.09;;;22.49;100.00
11830;BME280;5972;42.134;24.718;2023-07-24T02:21:03;99751.16;;;22.50;100.00
11830;BME280;5972;42.134;24.718;2023-07-24T02:23:30;99757.06;;;22.48;100.00
11830;BME280;5972;42.134;24.718;2023-07-24T02:25:56;99753.41;;;22.55;100.00
11830;BME280;5972;42.134;24.718;2023-07-24T02:28:23;99756.38;;;22.40;100.00
11830;BME280;5972;42.134;24.718;2023-07-24T02:30:50;99755.63;;;22.40;100.00
11830;BME280;5972;42.134;24.718;2023-07-24T02:33:21;99766.34;;;22.34;100.00
11830;BME280;5972;42.134;24.718;2023-07-24T02:35:51;99762.03;;;22.33;100.00
11830;BME280;5972;42.134;24.718;2023-07-24T02:38:18;99742.00;;;22.29;100.00
11830;BME280;5972;42.134;24.718;2023-07-24T02:40:45;99771.25;;;22.47;100.00
11830;BME280;5972;42.134;24.718;2023-07-24T02:43:12;99780.22;;;22.54;100.00
11830;BME280;5972;42.134;24.718;2023-07-24T02:45:39;99789.16;;;22.62;100.00
11830;BME280;5972;42.134;24.718;2023-07-24T02:48:05;99772.53;;;22.42;100.00
11830;BME280;5972;42.134;24.718;2023-07-24T02:50:32;99759.31;;;22.30;100.00
11830;BME280;5972;42.134;24.718;2023-07-24T02:53:01;99770.41;;;22.26;100.00
11830;BME280;5972;42.134;24.718;2023-07-24T02:55:28;99766.00;;;22.06;100.00
11830;BME280;5972;42.134;24.718;2023-07-24T02:57:54;99784.72;;;22.18;100.00
11830;BME280;5972;42.134;24.718;2023-07-24T03:00:21;99789.00;;;22.19;100.00
11830;BME280;5972;42.134;24.718;2023-07-24T03:02:48;99788.22;;;22.18;100.00
11830;BME280;5972;42.134;24.718;2023-07-24T03:05:15;99788.41;;;22.34;100.00
11830;BME280;5972;42.134;24.718;2023-07-24T03:07:41;99789.59;;;22.33;100.00
11830;BME280;5972;42.134;24.718;2023-07-24T03:10:10;99782.34;;;22.43;100.00
11830;BME280;5972;42.134;24.718;2023-07-24T03:12:36;99781.50;;;22.46;100.00
11830;BME280;5972;42.134;24.718;2023-07-24T03:15:04;99774.88;;;22.44;100.00
11830;BME280;5972;42.134;24.718;2023-07-24T03:17:31;99768.88;;;22.49;100.00
11830;BME280;5972;42.134;24.718;2023-07-24T03:19:58;99774.88;;;22.44;100.00
11830;BME280;5972;42.134;24.718;2023-07-24T03:22:25;99775.66;;;22.44;100.00
11830;BME280;5972;42.134;24.718;2023-07-24T03:24:52;99786.38;;;22.38;100.00
11830;BME280;5972;42.134;24.718;2023-07-24T03:27:20;99779.91;;;22.49;100.00
11830;BME280;5972;42.134;24.718;2023-07-24T03:29:47;99780.91;;;22.62;100.00
11830;BME280;5972;42.134;24.718;2023-07-24T03:32:13;99779.91;;;22.49;100.00
11830;BME280;5972;42.134;24.718;2023-07-24T03:34:40;99778.75;;;22.46;100.00
11830;BME280;5972;42.134;24.718;2023-07-24T03:37:07;99783.03;;;22.51;100.00
11830;BME280;5972;42.134;24.718;2023-07-24T03:39:34;99780.94;;;22.58;100.00
11830;BME280;5972;42.134;24.718;2023-07-24T03:42:01;99776.47;;;22.41;100.00
11830;BME280;5972;42.134;24.718;2023-07-24T03:44:30;99782.44;;;22.39;100.00
11830;BME280;5972;42.134;24.718;2023-07-24T03:46:56;99787.72;;;22.54;100.00
11830;BME280;5972;42.134;24.718;2023-07-24T03:49:23;99781.59;;;22.66;100.00
11830;BME280;5972;42.134;24.718;2023-07-24T03:51:50;99772.06;;;22.70;100.00
11830;BME280;5972;42.134;24.718;2023-07-24T03:54:16;99777.63;;;22.94;100.00
11830;BME280;5972;42.134;24.718;2023-07-24T03:56:43;99773.50;;;23.25;100.00
11830;BME280;5972;42.134;24.718;2023-07-24T03:59:10;99762.25;;;23.16;100.00
11830;BME280;5972;42.134;24.718;2023-07-24T04:01:38;99774.41;;;23.18;100.00
11830;BME280;5972;42.134;24.718;2023-07-24T04:04:05;99780.69;;;22.99;100.00
11830;BME280;5972;42.134;24.718;2023-07-24T04:06:32;99779.09;;;23.21;100.00
11830;BME280;5972;42.134;24.718;2023-07-24T04:08:58;99772.75;;;23.64;100.00
11830;BME280;5972;42.134;24.718;2023-07-24T04:11:25;99768.06;;;23.81;100.00
11830;BME280;5972;42.134;24.718;2023-07-24T04:13:52;99769.63;;;23.82;100.00
11830;BME280;5972;42.134;24.718;2023-07-24T04:16:19;99774.00;;;23.99;100.00
11830;BME280;5972;42.134;24.718;2023-07-24T04:18:47;99780.63;;;24.21;100.00
11830;BME280;5972;42.134;24.718;2023-07-24T04:21:13;99785.81;;;24.19;100.00
11830;BME280;5972;42.134;24.718;2023-07-24T04:23:40;99779.78;;;24.24;100.00
11830;BME280;5972;42.134;24.718;2023-07-24T04:26:07;99772.63;;;24.75;100.00
11830;BME280;5972;42.134;24.718;2023-07-24T04:28:34;99776.75;;;25.16;100.00
11830;BME280;5972;42.134;24.718;2023-07-24T04:31:00;99766.75;;;26.30;100.00
11830;BME280;5972;42.134;24.718;2023-07-24T04:33:27;99776.03;;;27.43;100.00
11830;BME280;5972;42.134;24.718;2023-07-24T04:35:56;99796.78;;;28.17;100.00
11830;BME280;5972;42.134;24.718;2023-07-24T04:38:22;99797.22;;;29.13;100.00
11830;BME280;5972;42.134;24.718;2023-07-24T04:40:49;99769.72;;;30.03;100.00
11830;BME280;5972;42.134;24.718;2023-07-24T04:43:16;99780.97;;;30.60;93.94
11830;BME280;5972;42.134;24.718;2023-07-24T04:45:43;99782.09;;;31.01;84.81
11830;BME280;5972;42.134;24.718;2023-07-24T04:48:10;99778.53;;;30.10;90.01
11830;BME280;5972;42.134;24.718;2023-07-24T04:50:36;99783.28;;;29.68;97.82
11830;BME280;5972;42.134;24.718;2023-07-24T04:53:04;99771.06;;;30.16;92.95
11830;BME280;5972;42.134;24.718;2023-07-24T04:55:31;99785.81;;;31.07;83.42
11830;BME280;5972;42.134;24.718;2023-07-24T04:57:58;99787.69;;;31.92;74.91
11830;BME280;5972;42.134;24.718;2023-07-24T05:00:25;99788.00;;;32.79;67.64
11830;BME280;5972;42.134;24.718;2023-07-24T05:02:52;99769.03;;;32.68;66.27
11830;BME280;5972;42.134;24.718;2023-07-24T05:05:19;99792.13;;;33.96;61.42
11830;BME280;5972;42.134;24.718;2023-07-24T05:07:45;99786.88;;;35.36;51.58
11830;BME280;5972;42.134;24.718;2023-07-24T05:10:14;99780.09;;;35.06;51.30
11830;BME280;5972;42.134;24.718;2023-07-24T05:12:41;99789.72;;;35.59;50.86
11830;BME280;5972;42.134;24.718;2023-07-24T05:15:08;99782.59;;;36.36;47.68
11830;BME280;5972;42.134;24.718;2023-07-24T05:17:35;99794.22;;;37.01;45.50
11830;BME280;5972;42.134;24.718;2023-07-24T05:20:02;99784.66;;;37.21;44.55
11830;BME280;5972;42.134;24.718;2023-07-24T05:22:29;99795.69;;;37.71;42.69
11830;BME280;5972;42.134;24.718;2023-07-24T05:24:56;99792.81;;;38.12;41.33
11830;BME280;5972;42.134;24.718;2023-07-24T05:27:24;99796.34;;;36.84;45.12
11830;BME280;5972;42.134;24.718;2023-07-24T05:29:51;99791.28;;;38.11;41.34
11830;BME280;5972;42.134;24.718;2023-07-24T05:32:18;99801.50;;;38.44;40.99
11830;BME280;5972;42.134;24.718;2023-07-24T05:34:45;99806.88;;;38.47;40.02
11830;BME280;5972;42.134;24.718;2023-07-24T05:37:12;99785.03;;;38.48;39.48
11830;BME280;5972;42.134;24.718;2023-07-24T05:39:38;99801.09;;;38.83;39.03
11830;BME280;5972;42.134;24.718;2023-07-24T05:42:05;99806.22;;;39.46;38.57
11830;BME280;5972;42.134;24.718;2023-07-24T05:44:33;99801.88;;;39.45;37.44
11830;BME280;5972;42.134;24.718;2023-07-24T05:47:02;99799.09;;;33.74;51.84
11830;BME280;5972;42.134;24.718;2023-07-24T05:49:29;99793.00;;;35.35;51.46
11830;BME280;5972;42.134;24.718;2023-07-24T05:51:56;99789.03;;;34.19;54.81
11830;BME280;5972;42.134;24.718;2023-07-24T05:54:23;99775.91;;;35.50;48.05
11830;BME280;5972;42.134;24.718;2023-07-24T05:56:51;99787.63;;;37.45;41.82
11830;BME280;5972;42.134;24.718;2023-07-24T05:59:18;99791.44;;;38.73;37.68
11830;BME280;5972;42.134;24.718;2023-07-24T06:01:46;99794.09;;;39.08;37.14
11830;BME280;5972;42.134;24.718;2023-07-24T06:04:13;99787.06;;;39.15;36.77
11830;BME280;5972;42.134;24.718;2023-07-24T06:06:40;99789.88;;;40.21;34.59
11830;BME280;5972;42.134;24.718;2023-07-24T06:09:07;99777.44;;;41.17;32.61
11830;BME280;5972;42.134;24.718;2023-07-24T06:11:34;99787.03;;;41.61;29.53
11830;BME280;5972;42.134;24.718;2023-07-24T06:14:00;99781.00;;;38.38;33.13
11830;BME280;5972;42.134;24.718;2023-07-24T06:16:27;99773.22;;;35.18;38.33
11830;BME280;5972;42.134;24.718;2023-07-24T06:18:55;99780.03;;;38.00;34.77
11830;BME280;5972;42.134;24.718;2023-07-24T06:21:22;99781.06;;;38.02;34.93
11830;BME280;5972;42.134;24.718;2023-07-24T06:23:49;99774.56;;;37.36;36.41
11830;BME280;5972;42.134;24.718;2023-07-24T06:26:15;99766.47;;;36.14;39.67
11830;BME280;5972;42.134;24.718;2023-07-24T06:28:43;99752.47;;;34.99;41.64
11830;BME280;5972;42.134;24.718;2023-07-24T06:31:09;99759.84;;;33.28;46.69
11830;BME280;5972;42.134;24.718;2023-07-24T06:33:36;99752.94;;;31.99;51.59
11830;BME280;5972;42.134;24.718;2023-07-24T06:36:08;99752.03;;;30.48;57.42
11830;BME280;5972;42.134;24.718;2023-07-24T06:38:39;99743.00;;;30.53;57.99
11830;BME280;5972;42.134;24.718;2023-07-24T06:41:07;99748.50;;;29.96;64.96
11830;BME280;5972;42.134;24.718;2023-07-24T06:43:34;99746.91;;;29.44;67.06
11830;BME280;5972;42.134;24.718;2023-07-24T06:46:01;99749.31;;;29.79;67.17
11830;BME280;5972;42.134;24.718;2023-07-24T06:48:28;99754.47;;;29.62;65.10
11830;BME280;5972;42.134;24.718;2023-07-24T06:50:54;99752.25;;;29.84;65.18
11830;BME280;5972;42.134;24.718;2023-07-24T06:53:23;99742.44;;;29.89;64.25
11830;BME280;5972;42.134;24.718;2023-07-24T06:55:49;99743.00;;;30.44;58.73
11830;BME280;5972;42.134;24.718;2023-07-24T06:58:17;99734.84;;;29.89;60.13
11830;BME280;5972;42.134;24.718;2023-07-24T07:00:43;99711.53;;;29.59;60.29
11830;BME280;5972;42.134;24.718;2023-07-24T07:03:10;99748.22;;;30.60;53.51
11830;BME280;5972;42.134;24.718;2023-07-24T07:05:37;99732.84;;;31.42;50.83
11830;BME280;5972;42.134;24.718;2023-07-24T07:08:03;99735.59;;;31.80;48.55
11830;BME280;5972;42.134;24.718;2023-07-24T07:10:32;99735.47;;;32.04;47.77
11830;BME280;5972;42.134;24.718;2023-07-24T07:12:59;99743.91;;;31.21;50.84
11830;BME280;5972;42.134;24.718;2023-07-24T07:15:25;99732.69;;;31.74;50.31
11830;BME280;5972;42.134;24.718;2023-07-24T07:17:52;99732.66;;;31.30;52.25
11830;BME280;5972;42.134;24.718;2023-07-24T07:20:19;99716.84;;;30.32;55.84
11830;BME280;5972;42.134;24.718;2023-07-24T07:22:46;99727.13;;;30.26;55.07
11830;BME280;5972;42.134;24.718;2023-07-24T07:25:13;99729.19;;;30.73;54.62
11830;BME280;5972;42.134;24.718;2023-07-24T07:27:41;99730.50;;;30.87;52.53
11830;BME280;5972;42.134;24.718;2023-07-24T07:30:11;99733.22;;;31.49;51.41
11830;BME280;5972;42.134;24.718;2023-07-24T07:32:37;99715.19;;;31.35;53.06
11830;BME280;5972;42.134;24.718;2023-07-24T07:35:05;99722.09;;;31.11;54.54
11830;BME280;5972;42.134;24.718;2023-07-24T07:37:32;99720.94;;;31.70;51.62
11830;BME280;5972;42.134;24.718;2023-07-24T07:39:59;99713.06;;;32.18;50.08
11830;BME280;5972;42.134;24.718;2023-07-24T07:42:26;99704.38;;;32.02;50.73
11830;BME280;5972;42.134;24.718;2023-07-24T07:44:54;99711.53;;;32.03;49.95
11830;BME280;5972;42.134;24.718;2023-07-24T07:47:21;99696.69;;;31.67;52.16
11830;BME280;5972;42.134;24.718;2023-07-24T07:49:48;99698.31;;;31.89;52.26
11830;BME280;5972;42.134;24.718;2023-07-24T07:52:15;99705.47;;;31.75;52.32
11830;BME280;5972;42.134;24.718;2023-07-24T07:54:46;99703.72;;;30.24;59.56
11830;BME280;5972;42.134;24.718;2023-07-24T07:57:13;99696.25;;;30.30;61.60
11830;BME280;5972;42.134;24.718;2023-07-24T07:59:40;99694.13;;;30.72;58.97
11830;BME280;5972;42.134;24.718;2023-07-24T08:02:08;99696.88;;;31.49;54.38
11830;BME280;5972;42.134;24.718;2023-07-24T08:04:35;99699.00;;;31.25;54.46
11830;BME280;5972;42.134;24.718;2023-07-24T08:07:02;99687.13;;;31.89;52.44
11830;BME280;5972;42.134;24.718;2023-07-24T08:09:28;99696.47;;;32.55;49.13
11830;BME280;5972;42.134;24.718;2023-07-24T08:11:55;99689.53;;;32.66;49.19
11830;BME280;5972;42.134;24.718;2023-07-24T08:14:22;99689.75;;;31.77;52.86
11830;BME280;5972;42.134;24.718;2023-07-24T08:16:49;99686.81;;;32.56;50.67
11830;BME280;5972;42.134;24.718;2023-07-24T08:19:17;99691.03;;;32.11;52.18
11830;BME280;5972;42.134;24.718;2023-07-24T08:21:44;99675.75;;;31.77;54.31
11830;BME280;5972;42.134;24.718;2023-07-24T08:24:10;99679.81;;;31.47;56.64
11830;BME280;5972;42.134;24.718;2023-07-24T08:26:37;99681.50;;;31.89;54.83
11830;BME280;5972;42.134;24.718;2023-07-24T08:29:05;99684.91;;;31.34;58.04
11830;BME280;5972;42.134;24.718;2023-07-24T08:31:31;99685.50;;;31.23;59.21
11830;BME280;5972;42.134;24.718;2023-07-24T08:33:58;99685.13;;;31.74;55.54
11830;BME280;5972;42.134;24.718;2023-07-24T08:36:26;99681.28;;;32.07;55.43
11830;BME280;5972;42.134;24.718;2023-07-24T08:38:54;99676.91;;;32.76;51.00
11830;BME280;5972;42.134;24.718;2023-07-24T08:41:21;99689.31;;;33.15;49.10
11830;BME280;5972;42.134;24.718;2023-07-24T08:43:48;99669.31;;;33.54;48.19
11830;BME280;5972;42.134;24.718;2023-07-24T08:46:15;99660.50;;;33.15;49.96
11830;BME280;5972;42.134;24.718;2023-07-24T08:48:42;99648.88;;;32.00;53.87
11830;BME280;5972;42.134;24.718;2023-07-24T08:51:11;99659.34;;;33.01;50.98
11830;BME280;5972;42.134;24.718;2023-07-24T08:53:41;99659.97;;;31.60;56.33
11830;BME280;5972;42.134;24.718;2023-07-24T08:56:09;99651.31;;;32.48;53.84
11830;BME280;5972;42.134;24.718;2023-07-24T08:58:37;99653.56;;;32.44;52.26
11830;BME280;5972;42.134;24.718;2023-07-24T09:01:05;99649.91;;;31.68;55.42
11830;BME280;5972;42.134;24.718;2023-07-24T09:03:33;99638.81;;;31.73;55.02
11830;BME280;5972;42.134;24.718;2023-07-24T09:05:59;99649.47;;;32.04;54.29
11830;BME280;5972;42.134;24.718;2023-07-24T09:08:29;99645.91;;;32.44;51.40
11830;BME280;5972;42.134;24.718;2023-07-24T09:10:58;99641.28;;;32.61;50.81
11830;BME280;5972;42.134;24.718;2023-07-24T09:13:25;99648.84;;;32.96;49.12
11830;BME280;5972;42.134;24.718;2023-07-24T09:15:52;99641.31;;;33.33;47.30
11830;BME280;5972;42.134;24.718;2023-07-24T09:18:19;99641.31;;;33.65;47.19
11830;BME280;5972;42.134;24.718;2023-07-24T09:20:45;99637.38;;;33.51;47.43
11830;BME280;5972;42.134;24.718;2023-07-24T09:23:13;99632.38;;;32.83;50.47
11830;BME280;5972;42.134;24.718;2023-07-24T09:25:41;99635.28;;;33.15;49.15
11830;BME280;5972;42.134;24.718;2023-07-24T09:28:11;99623.66;;;33.27;49.22
11830;BME280;5972;42.134;24.718;2023-07-24T09:30:38;99631.91;;;33.36;47.00
11830;BME280;5972;42.134;24.718;2023-07-24T09:33:06;99626.19;;;32.74;50.25
11830;BME280;5972;42.134;24.718;2023-07-24T09:35:33;99620.16;;;32.40;50.15
11830;BME280;5972;42.134;24.718;2023-07-24T09:38:04;99617.63;;;32.22;49.94
11830;BME280;5972;42.134;24.718;2023-07-24T09:40:38;99617.53;;;32.77;47.66
11830;BME280;5972;42.134;24.718;2023-07-24T09:43:23;99615.81;;;32.80;46.81
11830;BME280;5972;42.134;24.718;2023-07-24T09:45:51;99595.91;;;32.78;46.19
11830;BME280;5972;42.134;24.718;2023-07-24T09:48:19;99585.66;;;32.29;47.44
11830;BME280;5972;42.134;24.718;2023-07-24T09:50:47;99599.47;;;32.32;47.98
11830;BME280;5972;42.134;24.718;2023-07-24T09:53:19;99587.34;;;31.86;49.86
11830;BME280;5972;42.134;24.718;2023-07-24T09:55:50;99583.75;;;32.40;48.57
11830;BME280;5972;42.134;24.718;2023-07-24T09:58:20;99586.13;;;32.47;45.40
11830;BME280;5972;42.134;24.718;2023-07-24T10:00:48;99581.84;;;32.72;43.37
11830;BME280;5972;42.134;24.718;2023-07-24T10:03:16;99583.88;;;32.11;46.98
11830;BME280;5972;42.134;24.718;2023-07-24T10:05:44;99575.81;;;32.59;45.49
11830;BME280;5972;42.134;24.718;2023-07-24T10:08:10;99570.09;;;32.28;45.29
11830;BME280;5972;42.134;24.718;2023-07-24T10:10:38;99566.66;;;32.38;43.88
11830;BME280;5972;42.134;24.718;2023-07-24T10:13:05;99572.59;;;32.46;42.71
11830;BME280;5972;42.134;24.718;2023-07-24T10:15:35;99569.22;;;33.14;40.41
11830;BME280;5972;42.134;24.718;2023-07-24T10:18:03;99567.63;;;33.33;40.26
11830;BME280;5972;42.134;24.718;2023-07-24T10:20:34;99552.66;;;32.84;41.97
11830;BME280;5972;42.134;24.718;2023-07-24T10:23:01;99545.25;;;32.61;43.05
11830;BME280;5972;42.134;24.718;2023-07-24T10:25:29;99545.69;;;33.06;42.82
11830;BME280;5972;42.134;24.718;2023-07-24T10:28:01;99529.75;;;32.60;41.79
11830;BME280;5972;42.134;24.718;2023-07-24T10:30:32;99542.41;;;32.76;41.94
11830;BME280;5972;42.134;24.718;2023-07-24T10:33:08;99543.72;;;32.80;40.42
11830;BME280;5972;42.134;24.718;2023-07-24T10:35:43;99533.22;;;32.75;40.31
11830;BME280;5972;42.134;24.718;2023-07-24T10:38:10;99536.78;;;32.76;39.70
11830;BME280;5972;42.134;24.718;2023-07-24T10:40:38;99524.09;;;32.80;39.46
11830;BME280;5972;42.134;24.718;2023-07-24T10:43:06;99505.59;;;32.94;39.04
11830;BME280;5972;42.134;24.718;2023-07-24T10:45:47;99513.97;;;33.57;39.28
11830;BME280;5972;42.134;24.718;2023-07-24T10:48:16;99504.31;;;33.63;38.19
11830;BME280;5972;42.134;24.718;2023-07-24T10:50:44;99502.28;;;33.21;37.30
11830;BME280;5972;42.134;24.718;2023-07-24T10:53:14;99478.16;;;33.40;36.60
11830;BME280;5972;42.134;24.718;2023-07-24T10:55:42;99484.72;;;33.69;35.92
11830;BME280;5972;42.134;24.718;2023-07-24T10:58:09;99477.19;;;33.97;36.34
11830;BME280;5972;42.134;24.718;2023-07-24T11:00:36;99473.88;;;33.99;33.11
11830;BME280;5972;42.134;24.718;2023-07-24T11:03:05;99472.81;;;33.91;36.31
11830;BME280;5972;42.134;24.718;2023-07-24T11:05:35;99460.81;;;33.90;37.23
11830;BME280;5972;42.134;24.718;2023-07-24T11:08:09;99470.44;;;33.72;38.42
11830;BME280;5972;42.134;24.718;2023-07-24T11:10:44;99461.25;;;33.72;38.93
11830;BME280;5972;42.134;24.718;2023-07-24T11:13:11;99448.97;;;33.64;37.80
11830;BME280;5972;42.134;24.718;2023-07-24T11:15:37;99457.25;;;33.90;36.34
11830;BME280;5972;42.134;24.718;2023-07-24T11:18:04;99450.75;;;34.20;35.76
11830;BME280;5972;42.134;24.718;2023-07-24T11:20:38;99460.63;;;33.99;37.46
11830;BME280;5972;42.134;24.718;2023-07-24T11:23:04;99454.34;;;33.19;37.84
11830;BME280;5972;42.134;24.718;2023-07-24T11:25:31;99445.88;;;33.62;38.14
11830;BME280;5972;42.134;24.718;2023-07-24T11:27:58;99442.34;;;34.43;35.70
11830;BME280;5972;42.134;24.718;2023-07-24T11:30:25;99445.16;;;34.32;37.94
11830;BME280;5972;42.134;24.718;2023-07-24T11:32:52;99440.19;;;33.99;38.95
11830;BME280;5972;42.134;24.718;2023-07-24T11:35:19;99436.97;;;34.45;37.67
11830;BME280;5972;42.134;24.718;2023-07-24T11:37:49;99446.69;;;34.38;35.98
11830;BME280;5972;42.134;24.718;2023-07-24T11:40:16;99434.84;;;34.06;36.63
11830;BME280;5972;42.134;24.718;2023-07-24T11:42:48;99421.31;;;33.99;36.79
11830;BME280;5972;42.134;24.718;2023-07-24T11:45:20;99432.09;;;34.23;37.08
11830;BME280;5972;42.134;24.718;2023-07-24T11:47:50;99422.69;;;34.37;37.45
11830;BME280;5972;42.134;24.718;2023-07-24T11:50:24;99424.22;;;34.38;36.77
11830;BME280;5972;42.134;24.718;2023-07-24T11:52:52;99427.28;;;34.51;36.03
11830;BME280;5972;42.134;24.718;2023-07-24T11:55:29;99421.16;;;34.58;35.41
11830;BME280;5972;42.134;24.718;2023-07-24T11:57:57;99423.50;;;34.71;34.73
11830;BME280;5972;42.134;24.718;2023-07-24T12:00:24;99419.88;;;34.65;35.49
11830;BME280;5972;42.134;24.718;2023-07-24T12:02:59;99414.00;;;34.91;35.29
11830;BME280;5972;42.134;24.718;2023-07-24T12:05:26;99422.72;;;34.82;33.68
11830;BME280;5972;42.134;24.718;2023-07-24T12:07:55;99419.09;;;34.53;34.50
11830;BME280;5972;42.134;24.718;2023-07-24T12:10:26;99409.66;;;34.90;32.83
11830;BME280;5972;42.134;24.718;2023-07-24T12:12:54;99410.94;;;34.78;32.99
11830;BME280;5972;42.134;24.718;2023-07-24T12:15:21;99410.91;;;34.94;32.66
11830;BME280;5972;42.134;24.718;2023-07-24T12:17:48;99401.66;;;35.33;31.88
11830;BME280;5972;42.134;24.718;2023-07-24T12:20:15;99403.59;;;35.60;30.33
11830;BME280;5972;42.134;24.718;2023-07-24T12:22:42;99406.09;;;35.75;30.39
11830;BME280;5972;42.134;24.718;2023-07-24T12:25:10;99404.78;;;35.87;30.19
11830;BME280;5972;42.134;24.718;2023-07-24T12:27:37;99395.03;;;35.88;29.93
11830;BME280;5972;42.134;24.718;2023-07-24T12:30:06;99394.13;;;35.58;29.74
11830;BME280;5972;42.134;24.718;2023-07-24T12:32:33;99378.56;;;35.45;30.36
11830;BME280;5972;42.134;24.718;2023-07-24T12:35:00;99379.53;;;35.65;30.41
11830;BME280;5972;42.134;24.718;2023-07-24T12:37:27;99383.13;;;35.60;30.35
11830;BME280;5972;42.134;24.718;2023-07-24T12:39:54;99380.53;;;35.67;29.71
11830;BME280;5972;42.134;24.718;2023-07-24T12:42:22;99380.22;;;35.82;29.87
11830;BME280;5972;42.134;24.718;2023-07-24T12:44:51;99372.00;;;35.84;28.65
11830;BME280;5972;42.134;24.718;2023-07-24T12:47:18;99362.59;;;35.76;28.80
11830;BME280;5972;42.134;24.718;2023-07-24T12:49:45;99351.59;;;35.09;30.10
11830;BME280;5972;42.134;24.718;2023-07-24T12:52:12;99360.19;;;35.33;31.09
11830;BME280;5972;42.134;24.718;2023-07-24T12:54:39;99352.66;;;35.69;30.59
11830;BME280;5972;42.134;24.718;2023-07-24T12:57:06;99349.69;;;35.92;30.44
11830;BME280;5972;42.134;24.718;2023-07-24T12:59:34;99351.69;;;35.50;30.50